createdAt,value
2022-10-26T00:02:48.513Z,101403.59
2022-10-26T00:07:50.541Z,101412.28
2022-10-26T00:12:54.066Z,101405.22
2022-10-26T00:17:56.072Z,101411.28
2022-10-26T00:22:58.169Z,101413.00
2022-10-26T00:28:01.459Z,101411.91
2022-10-26T00:33:03.196Z,101417.25
2022-10-26T00:38:05.308Z,101428.59
2022-10-26T00:43:15.672Z,101421.34
2022-10-26T00:48:25.371Z,101428.41
2022-10-26T00:53:27.769Z,101424.91
2022-10-26T00:58:32.305Z,101410.84
2022-10-26T01:03:36.387Z,101410.75
2022-10-26T01:08:39.407Z,101406.03
2022-10-26T01:13:46.128Z,101404.44
2022-10-26T01:18:54.220Z,101404.41
2022-10-26T01:24:10.124Z,101407.72
2022-10-26T01:29:50.924Z,101404.78
2022-10-26T01:35:01.811Z,101398.66
2022-10-26T01:40:09.904Z,101398.63
2022-10-26T01:45:14.273Z,101393.28
2022-10-26T01:50:20.145Z,101393.44
2022-10-26T01:55:50.486Z,101395.91
2022-10-26T02:00:59.377Z,101396.63
2022-10-26T02:06:10.119Z,101393.06
2022-10-26T02:11:24.780Z,101401.06
2022-10-26T02:16:34.649Z,101394.78
2022-10-26T02:21:41.920Z,101409.09
2022-10-26T02:26:48.559Z,101391.59
2022-10-26T02:31:52.059Z,101398.44
2022-10-26T02:36:58.788Z,101387.06
2022-10-26T02:42:04.689Z,101388.81
2022-10-26T02:47:06.740Z,101387.84
2022-10-26T02:52:19.132Z,101385.91
2022-10-26T02:57:26.175Z,101386.69
2022-10-26T03:02:28.781Z,101395.44
2022-10-26T03:07:32.255Z,101397.13
2022-10-26T03:12:34.237Z,101403.34
2022-10-26T03:17:36.108Z,101399.75
2022-10-26T03:22:39.436Z,101393.53
2022-10-26T03:27:41.150Z,101394.22
2022-10-26T03:32:42.835Z,101392.53
2022-10-26T03:37:46.956Z,101381.56
2022-10-26T03:42:49.465Z,101392.34
2022-10-26T03:47:51.355Z,101402.66
2022-10-26T03:52:54.884Z,101402.59
2022-10-26T03:57:56.571Z,101402.19
2022-10-26T04:02:59.825Z,101398.78
2022-10-26T04:08:03.958Z,101402.28
2022-10-26T04:13:05.933Z,101403.94
2022-10-26T04:18:09.899Z,101407.31
2022-10-26T04:23:15.933Z,101411.59
2022-10-26T04:28:17.851Z,101403.47
2022-10-26T04:33:19.886Z,101400.75
2022-10-26T04:38:23.449Z,101405.00
2022-10-26T04:43:25.397Z,101399.72
2022-10-26T04:48:27.022Z,101414.72
2022-10-26T04:53:30.482Z,101409.31
2022-10-26T04:58:32.467Z,101398.78
2022-10-26T05:03:34.552Z,101399.50
2022-10-26T05:08:38.187Z,101389.78
2022-10-26T05:13:40.325Z,101396.75
2022-10-26T05:18:42.225Z,101400.38
2022-10-26T05:23:45.853Z,101402.78
2022-10-26T05:28:47.876Z,101398.53
2022-10-26T05:33:50.218Z,101393.09
2022-10-26T05:38:53.722Z,101390.66
2022-10-26T05:43:56.073Z,101400.59
2022-10-26T05:48:58.571Z,101403.25
2022-10-26T05:54:01.919Z,101409.50
2022-10-26T05:59:04.773Z,101415.72
2022-10-26T06:04:17.894Z,101417.38
2022-10-26T06:09:22.483Z,101411.38
2022-10-26T06:14:25.135Z,101416.63
2022-10-26T06:19:40.133Z,101413.19
2022-10-26T06:24:52.331Z,101416.94
2022-10-26T06:30:00.871Z,101416.19
2022-10-26T06:35:14.536Z,101413.56
2022-10-26T06:40:18.937Z,101423.38
2022-10-26T06:45:21.707Z,101424.41
2022-10-26T06:50:34.287Z,101427.06
2022-10-26T06:55:42.254Z,101423.53
2022-10-26T07:00:46.322Z,101424.66
2022-10-26T07:05:48.975Z,101425.75
2022-10-26T07:10:52.682Z,101437.50
2022-10-26T07:15:54.693Z,101432.50
2022-10-26T07:20:59.122Z,101440.69
2022-10-26T07:26:02.430Z,101439.19
2022-10-26T07:31:04.556Z,101438.63
2022-10-26T07:36:07.030Z,101444.25
2022-10-26T07:41:10.488Z,101452.59
2022-10-26T07:46:13.199Z,101458.31
2022-10-26T07:51:15.364Z,101452.47
2022-10-26T07:56:18.851Z,101446.53
2022-10-26T08:01:21.706Z,101451.19
2022-10-26T08:06:24.851Z,101452.25
2022-10-26T08:11:28.332Z,101460.34
2022-10-26T08:16:30.182Z,101453.41
2022-10-26T08:21:47.168Z,101450.84
2022-10-26T08:26:51.009Z,101461.53
2022-10-26T08:31:53.267Z,101458.91
2022-10-26T08:36:55.277Z,101451.88
2022-10-26T08:42:04.595Z,101443.91
2022-10-26T08:47:12.166Z,101450.06
2022-10-26T08:52:17.929Z,101446.47
2022-10-26T08:57:26.050Z,101442.81
2022-10-26T09:02:28.113Z,101456.03
2022-10-26T09:07:52.178Z,101456.75
2022-10-26T09:13:03.748Z,101440.69
2022-10-26T09:18:16.963Z,101454.63
2022-10-26T09:23:34.265Z,101460.69
2022-10-26T09:28:39.230Z,101437.31
2022-10-26T09:33:41.305Z,101452.00
2022-10-26T09:38:49.084Z,101446.16
2022-10-26T09:43:58.854Z,101456.34
2022-10-26T09:49:06.762Z,101454.25
2022-10-26T09:54:15.496Z,101460.66
2022-10-26T09:59:22.512Z,101466.91
2022-10-26T10:04:24.485Z,101471.75
2022-10-26T10:09:26.811Z,101467.63
2022-10-26T10:14:34.749Z,101471.63
2022-10-26T10:19:39.490Z,101470.75
2022-10-26T10:24:43.440Z,101465.41
2022-10-26T10:29:48.611Z,101461.25
2022-10-26T10:34:52.342Z,101451.44
2022-10-26T10:39:58.495Z,101458.16
2022-10-26T10:45:03.028Z,101452.34
2022-10-26T10:50:16.024Z,101446.53
2022-10-26T10:55:20.897Z,101443.06
2022-10-26T11:00:26.040Z,101453.19
2022-10-26T11:05:40.369Z,101441.44
2022-10-26T11:10:47.669Z,101439.56
2022-10-26T11:16:04.715Z,101439.19
2022-10-26T11:21:17.818Z,101435.75
2022-10-26T11:26:27.226Z,101429.25
2022-10-26T11:31:36.285Z,101429.72
2022-10-26T11:36:40.430Z,101418.78
2022-10-26T11:41:48.869Z,101413.53
2022-10-26T11:46:57.390Z,101411.38
2022-10-26T11:52:06.319Z,101401.09
2022-10-26T11:57:10.797Z,101403.91
2022-10-26T12:02:17.426Z,101400.81
2022-10-26T12:07:25.298Z,101404.16
2022-10-26T12:12:37.126Z,101401.31
2022-10-26T12:17:48.906Z,101399.91
2022-10-26T12:22:51.907Z,101399.22
2022-10-26T12:27:56.127Z,101394.41
2022-10-26T12:33:00.840Z,101399.78
2022-10-26T12:38:23.549Z,101414.75
2022-10-26T12:43:39.775Z,101412.28
2022-10-26T12:48:45.100Z,101408.44
2022-10-26T12:53:51.838Z,101410.50
2022-10-26T12:59:19.486Z,101415.94
2022-10-26T13:04:58.413Z,101411.63
2022-10-26T13:10:04.274Z,101405.28
2022-10-26T13:15:20.913Z,101409.63
2022-10-26T13:20:24.653Z,101400.75
2022-10-26T13:25:28.696Z,101405.66
2022-10-26T13:30:44.441Z,101408.69
2022-10-26T13:35:49.549Z,101401.06
2022-10-26T13:40:57.300Z,101406.19
2022-10-26T13:46:01.442Z,101414.22
2022-10-26T13:51:13.844Z,101407.72
2022-10-26T13:56:25.098Z,101416.63
2022-10-26T14:01:27.628Z,101423.72
2022-10-26T14:06:34.397Z,101417.97
2022-10-26T14:11:43.413Z,101417.25
2022-10-26T14:16:47.117Z,101415.91
2022-10-26T14:21:51.170Z,101425.28
2022-10-26T14:26:53.300Z,101436.56
2022-10-26T14:31:54.937Z,101437.72
2022-10-26T14:37:00.855Z,101433.47
2022-10-26T14:42:11.472Z,101436.91
2022-10-26T14:47:17.912Z,101441.00
2022-10-26T14:52:24.088Z,101444.84
2022-10-26T14:57:32.819Z,101449.44
2022-10-26T15:02:34.561Z,101455.22
2022-10-26T15:07:38.564Z,101446.16
2022-10-26T15:12:40.666Z,101438.59
2022-10-26T15:17:48.829Z,101454.53
2022-10-26T15:22:54.682Z,101456.72
2022-10-26T15:28:09.867Z,101470.81
2022-10-26T15:33:19.703Z,101463.63
2022-10-26T15:38:22.996Z,101472.41
2022-10-26T15:43:25.503Z,101476.03
2022-10-26T15:48:31.485Z,101463.44
2022-10-26T15:53:36.261Z,101475.78
2022-10-26T15:58:38.382Z,101474.41
2022-10-26T16:03:40.502Z,101484.66
2022-10-26T16:08:47.819Z,101476.97
2022-10-26T16:19:11.718Z,101473.47
2022-10-26T16:24:21.328Z,101481.47
2022-10-26T16:29:23.648Z,101488.91
2022-10-26T16:34:26.014Z,101480.91
2022-10-26T16:39:29.654Z,101490.72
2022-10-26T16:44:31.713Z,101505.09
2022-10-26T16:49:33.624Z,101499.06
2022-10-26T16:54:36.903Z,101509.06
2022-10-26T16:59:38.953Z,101500.84
2022-10-26T17:04:41.098Z,101514.50
2022-10-26T17:09:44.126Z,101511.28
2022-10-26T17:14:46.268Z,101520.72
2022-10-26T17:19:47.920Z,101536.47
2022-10-26T17:24:51.651Z,101537.22
2022-10-26T17:29:53.493Z,101548.78
2022-10-26T17:34:55.677Z,101547.69
2022-10-26T17:39:59.499Z,101553.47
2022-10-26T17:45:01.627Z,101560.56
2022-10-26T17:50:04.013Z,101565.06
2022-10-26T17:55:09.904Z,101571.75
2022-10-26T18:00:12.911Z,101574.44
2022-10-26T18:05:14.675Z,101586.84
2022-10-26T18:10:38.024Z,101594.13
2022-10-26T18:15:41.472Z,101594.03
2022-10-26T18:20:43.492Z,101602.22
2022-10-26T18:25:47.259Z,101620.22
2022-10-26T18:30:49.337Z,101621.25
2022-10-26T18:35:51.254Z,101618.19
2022-10-26T18:40:54.885Z,101619.34
2022-10-26T18:46:03.433Z,101639.09
2022-10-26T18:51:07.267Z,101633.13
2022-10-26T18:56:12.348Z,101632.34
2022-10-26T19:01:17.257Z,101628.03
2022-10-26T19:06:21.133Z,101632.59
2022-10-26T19:11:27.580Z,101631.81
2022-10-26T19:16:47.925Z,101639.91
2022-10-26T19:21:50.574Z,101640.94
2022-10-26T19:26:54.421Z,101644.59
2022-10-26T19:31:57.028Z,101658.81
2022-10-26T19:36:59.197Z,101659.75
2022-10-26T19:42:02.451Z,101662.44
2022-10-26T19:47:04.142Z,101663.34
2022-10-26T19:52:06.166Z,101676.69
2022-10-26T19:57:09.327Z,101687.28
2022-10-26T20:02:11.249Z,101692.66
2022-10-26T20:07:13.032Z,101686.47
2022-10-26T20:12:16.079Z,101693.56
2022-10-26T20:17:17.803Z,101719.28
2022-10-26T20:22:19.508Z,101718.38
2022-10-26T20:27:22.915Z,101721.00
2022-10-26T20:32:24.637Z,101724.56
2022-10-26T20:37:26.986Z,101727.22
2022-10-26T20:42:30.827Z,101731.59
2022-10-26T20:47:33.319Z,101726.25
2022-10-26T20:52:40.982Z,101736.88
2022-10-26T20:57:52.472Z,101734.19
2022-10-26T21:02:54.240Z,101733.28
2022-10-26T21:12:58.921Z,101753.56
2022-10-26T21:18:00.629Z,101764.94
2022-10-26T21:23:02.371Z,101758.75
2022-10-26T21:28:05.944Z,101760.50
2022-10-26T21:33:07.609Z,101768.31
2022-10-26T21:38:09.333Z,101780.69
2022-10-26T21:43:12.796Z,101784.13
2022-10-26T21:48:15.125Z,101786.69
2022-10-26T21:53:17.030Z,101784.91
2022-10-26T21:58:20.124Z,101784.94
2022-10-26T22:03:21.994Z,101791.13
2022-10-26T22:08:23.881Z,101787.53
2022-10-26T22:13:26.930Z,101788.38
2022-10-26T22:18:28.642Z,101792.72
2022-10-26T22:23:33.226Z,101795.34
2022-10-26T22:28:41.536Z,101795.34
2022-10-26T22:33:44.862Z,101799.72
2022-10-26T22:38:46.615Z,101804.06
2022-10-26T22:43:49.983Z,101803.09
2022-10-26T22:48:53.925Z,101803.97
2022-10-26T22:53:57.350Z,101813.63
2022-10-26T22:59:00.769Z,101812.72
2022-10-26T23:04:02.608Z,101811.72
2022-10-26T23:09:05.782Z,101829.44
2022-10-26T23:14:09.094Z,101827.53
2022-10-26T23:19:10.931Z,101835.41
2022-10-26T23:24:12.589Z,101841.59
2022-10-26T23:29:15.872Z,101852.19
2022-10-26T23:34:17.522Z,101853.94
2022-10-26T23:39:19.337Z,101852.19
2022-10-26T23:44:22.345Z,101850.28
2022-10-26T23:49:24.079Z,101860.97
2022-10-26T23:54:25.749Z,101862.69
2022-10-26T23:59:28.788Z,101863.50
